createdAt,value
2023-04-16T00:01:08.058Z,36.53
2023-04-16T00:03:35.975Z,33.53
2023-04-16T00:06:04.075Z,32.45
2023-04-16T00:08:31.814Z,30.00
2023-04-16T00:10:59.619Z,32.03
2023-04-16T00:13:27.820Z,34.42
2023-04-16T00:15:55.439Z,31.85
2023-04-16T00:18:23.306Z,33.85
2023-04-16T00:20:51.985Z,37.33
2023-04-16T00:23:20.211Z,31.05
2023-04-16T00:25:47.964Z,29.35
2023-04-16T00:28:15.702Z,31.93
2023-04-16T00:30:43.366Z,33.80
2023-04-16T00:33:11.722Z,31.35
2023-04-16T00:35:39.787Z,30.75
2023-04-16T00:38:07.388Z,28.75
2023-04-16T00:40:35.047Z,29.08
2023-04-16T00:43:02.780Z,32.22
2023-04-16T00:45:30.752Z,35.80
2023-04-16T00:48:00.817Z,29.38
2023-04-16T00:50:29.584Z,31.63
2023-04-16T00:52:57.440Z,30.90
2023-04-16T00:55:25.321Z,30.50
2023-04-16T00:57:53.375Z,35.78
2023-04-16T01:00:21.547Z,36.60
2023-04-16T01:02:49.408Z,32.07
2023-04-16T01:05:17.220Z,35.72
2023-04-16T01:07:44.869Z,32.97
2023-04-16T01:10:12.622Z,32.92
2023-04-16T01:12:40.206Z,37.22
2023-04-16T01:15:08.853Z,34.63
2023-04-16T01:17:36.781Z,36.57
2023-04-16T01:20:04.990Z,36.57
2023-04-16T01:22:32.590Z,41.65
2023-04-16T01:25:00.826Z,40.80
2023-04-16T01:27:28.518Z,41.03
2023-04-16T01:29:56.388Z,36.20
2023-04-16T01:32:33.231Z,37.05
2023-04-16T01:35:01.062Z,38.13
2023-04-16T01:37:29.416Z,35.50
2023-04-16T01:39:57.165Z,37.87
2023-04-16T01:42:25.266Z,39.47
2023-04-16T01:44:52.936Z,41.85
2023-04-16T01:47:20.888Z,36.43
2023-04-16T01:49:48.676Z,42.37
2023-04-16T01:52:16.963Z,47.63
2023-04-16T01:54:44.651Z,44.13
2023-04-16T01:57:12.296Z,41.30
2023-04-16T01:59:40.047Z,43.93
2023-04-16T02:02:11.596Z,47.37
2023-04-16T02:04:42.248Z,46.10
2023-04-16T02:07:11.017Z,44.23
2023-04-16T02:09:40.937Z,47.07
2023-04-16T02:12:11.303Z,44.83
2023-04-16T02:14:39.014Z,41.73
2023-04-16T02:17:06.921Z,39.07
2023-04-16T02:19:39.144Z,41.57
2023-04-16T02:22:07.126Z,44.93
2023-04-16T02:24:34.708Z,46.13
2023-04-16T02:27:07.040Z,45.00
2023-04-16T02:29:34.998Z,43.27
2023-04-16T02:32:10.447Z,45.47
2023-04-16T02:34:40.266Z,38.93
2023-04-16T02:37:08.495Z,40.43
2023-04-16T02:39:38.783Z,48.37
2023-04-16T02:42:06.427Z,42.20
2023-04-16T02:44:33.984Z,42.03
2023-04-16T02:47:01.733Z,42.20
2023-04-16T02:49:29.722Z,44.30
2023-04-16T02:51:57.298Z,47.73
2023-04-16T02:54:25.039Z,45.37
2023-04-16T02:56:52.758Z,43.00
2023-04-16T02:59:20.544Z,46.60
2023-04-16T03:01:48.576Z,46.23
2023-04-16T03:04:16.436Z,45.43
2023-04-16T03:06:44.124Z,46.33
2023-04-16T03:09:12.684Z,48.27
2023-04-16T03:11:40.559Z,42.10
2023-04-16T03:14:08.261Z,45.03
2023-04-16T03:16:38.401Z,49.17
2023-04-16T03:19:06.121Z,46.13
2023-04-16T03:21:33.741Z,43.03
2023-04-16T03:24:01.767Z,45.93
2023-04-16T03:26:29.483Z,42.53
2023-04-16T03:28:57.096Z,44.63
2023-04-16T03:31:26.021Z,52.57
2023-04-16T03:33:54.365Z,48.13
2023-04-16T03:36:22.911Z,42.97
2023-04-16T03:38:50.865Z,53.00
2023-04-16T03:41:18.784Z,42.33
2023-04-16T03:43:46.582Z,45.70
2023-04-16T03:46:14.200Z,47.87
2023-04-16T03:48:42.000Z,47.53
2023-04-16T03:51:09.642Z,43.60
2023-04-16T03:53:37.279Z,46.83
2023-04-16T03:56:05.372Z,48.77
2023-04-16T03:58:32.968Z,44.87
2023-04-16T04:01:00.688Z,45.67
2023-04-16T04:03:28.987Z,43.63
2023-04-16T04:05:56.998Z,45.37
2023-04-16T04:08:28.836Z,45.57
2023-04-16T04:10:56.439Z,45.83
2023-04-16T04:13:25.582Z,44.03
2023-04-16T04:15:54.163Z,47.40
2023-04-16T04:18:22.868Z,49.30
2023-04-16T04:20:50.597Z,49.67
2023-04-16T04:23:20.548Z,48.30
2023-04-16T04:25:48.746Z,46.30
2023-04-16T04:28:16.551Z,42.00
2023-04-16T04:30:44.340Z,45.63
2023-04-16T04:33:12.887Z,46.53
2023-04-16T04:35:40.852Z,41.40
2023-04-16T04:38:09.825Z,38.40
2023-04-16T04:40:37.656Z,41.70
2023-04-16T04:43:05.316Z,43.23
2023-04-16T04:45:33.798Z,43.27
2023-04-16T04:48:01.567Z,50.80
2023-04-16T04:50:30.812Z,54.40
2023-04-16T04:52:58.844Z,49.03
2023-04-16T04:55:26.467Z,50.90
2023-04-16T04:57:54.202Z,50.70
2023-04-16T05:00:22.061Z,44.30
2023-04-16T05:02:55.305Z,49.30
2023-04-16T05:05:23.077Z,45.43
2023-04-16T05:07:50.875Z,54.03
2023-04-16T05:10:18.516Z,54.23
2023-04-16T05:12:49.007Z,47.57
2023-04-16T05:15:17.229Z,48.83
2023-04-16T05:17:44.907Z,46.23
2023-04-16T05:20:12.674Z,53.10
2023-04-16T05:22:40.314Z,52.97
2023-04-16T05:25:08.482Z,43.10
2023-04-16T05:27:37.073Z,46.77
2023-04-16T05:30:05.708Z,43.20
2023-04-16T05:32:33.388Z,46.27
2023-04-16T05:35:01.347Z,40.87
2023-04-16T05:37:29.160Z,41.43
2023-04-16T05:39:56.944Z,48.43
2023-04-16T05:42:25.099Z,41.30
2023-04-16T05:44:52.969Z,40.43
2023-04-16T05:47:21.513Z,40.72
2023-04-16T05:49:49.228Z,40.03
2023-04-16T05:52:17.264Z,40.57
2023-04-16T05:54:44.901Z,46.47
2023-04-16T05:57:14.340Z,35.57
2023-04-16T05:59:42.130Z,40.30
2023-04-16T06:02:09.851Z,39.60
2023-04-16T06:04:37.585Z,48.50
2023-04-16T06:07:05.501Z,40.70
2023-04-16T06:09:33.241Z,44.20
2023-04-16T06:12:01.318Z,43.53
2023-04-16T06:14:28.979Z,44.50
2023-04-16T06:16:56.678Z,38.93
2023-04-16T06:19:24.527Z,41.37
2023-04-16T06:21:53.473Z,37.60
2023-04-16T06:24:21.141Z,45.07
2023-04-16T06:26:48.818Z,42.10
2023-04-16T06:29:16.467Z,38.03
2023-04-16T06:31:44.128Z,36.50
2023-04-16T06:34:11.877Z,36.45
2023-04-16T06:36:39.509Z,38.42
2023-04-16T06:39:07.275Z,37.17
2023-04-16T06:41:34.998Z,41.60
2023-04-16T06:44:03.117Z,34.85
2023-04-16T06:46:31.738Z,35.10
2023-04-16T06:48:59.461Z,32.37
2023-04-16T06:51:27.117Z,37.30
2023-04-16T06:53:54.797Z,37.60
2023-04-16T06:56:22.483Z,40.17
2023-04-16T06:58:53.327Z,34.58
2023-04-16T07:01:21.041Z,32.53
2023-04-16T07:03:49.241Z,36.17
2023-04-16T07:06:17.028Z,35.65
2023-04-16T07:08:44.634Z,38.53
2023-04-16T07:11:12.521Z,33.40
2023-04-16T07:13:40.368Z,34.55
2023-04-16T07:16:08.087Z,39.15
2023-04-16T07:18:35.925Z,35.22
2023-04-16T07:21:11.191Z,36.60
2023-04-16T07:23:39.135Z,34.75
2023-04-16T07:26:06.720Z,31.70
2023-04-16T07:28:34.406Z,34.28
2023-04-16T07:31:02.128Z,32.13
2023-04-16T07:33:29.812Z,34.88
2023-04-16T07:36:00.944Z,30.90
2023-04-16T07:38:32.007Z,30.92
2023-04-16T07:41:00.279Z,34.10
2023-04-16T07:43:28.033Z,35.20
2023-04-16T07:45:56.197Z,33.10
2023-04-16T07:48:26.813Z,34.90
2023-04-16T07:50:54.954Z,37.20
2023-04-16T07:53:23.047Z,35.17
2023-04-16T07:55:51.193Z,38.15
2023-04-16T07:58:19.088Z,33.20
2023-04-16T08:00:48.450Z,38.15
2023-04-16T08:03:18.285Z,40.03
2023-04-16T08:05:46.099Z,36.17
2023-04-16T08:08:13.802Z,35.42
2023-04-16T08:10:41.521Z,35.40
2023-04-16T08:13:09.135Z,32.38
2023-04-16T08:15:36.881Z,33.22
2023-04-16T08:18:12.758Z,32.90
2023-04-16T08:20:43.047Z,41.28
2023-04-16T08:23:10.762Z,38.70
2023-04-16T08:25:38.450Z,33.42
2023-04-16T08:28:06.668Z,33.38
2023-04-16T08:30:34.537Z,35.75
2023-04-16T08:33:02.397Z,33.08
2023-04-16T08:35:30.332Z,34.03
2023-04-16T08:38:00.564Z,32.10
2023-04-16T08:40:31.670Z,35.38
2023-04-16T08:43:00.715Z,33.85
2023-04-16T08:45:28.977Z,34.80
2023-04-16T08:47:57.121Z,31.45
2023-04-16T08:50:26.606Z,38.38
2023-04-16T08:53:00.657Z,30.25
2023-04-16T08:55:40.643Z,32.35
2023-04-16T08:58:23.184Z,25.67
2023-04-16T09:00:51.989Z,31.48
2023-04-16T09:03:21.683Z,26.40
2023-04-16T09:05:50.439Z,24.08
2023-04-16T09:08:18.517Z,28.23
2023-04-16T09:10:46.763Z,25.25
2023-04-16T09:13:20.386Z,27.85
2023-04-16T09:15:51.757Z,26.52
2023-04-16T09:18:21.181Z,24.77
2023-04-16T09:20:57.051Z,33.33
2023-04-16T09:23:25.099Z,24.08
2023-04-16T09:25:52.709Z,24.00
2023-04-16T09:28:53.417Z,29.27
2023-04-16T09:31:21.900Z,26.00
2023-04-16T09:34:05.506Z,30.10
2023-04-16T09:36:34.616Z,26.80
2023-04-16T09:39:03.821Z,27.27
2023-04-16T09:41:36.081Z,24.50
2023-04-16T09:44:05.164Z,22.02
2023-04-16T09:46:41.136Z,20.80
2023-04-16T09:49:17.572Z,18.67
2023-04-16T09:51:51.115Z,22.75
2023-04-16T09:54:20.458Z,22.58
2023-04-16T09:56:48.082Z,20.27
2023-04-16T09:59:20.975Z,18.98
2023-04-16T10:01:53.698Z,16.77
2023-04-16T10:04:53.360Z,16.85
2023-04-16T10:07:22.061Z,18.80
2023-04-16T10:09:50.529Z,17.02
2023-04-16T10:12:21.256Z,18.92
2023-04-16T10:14:50.485Z,21.52
2023-04-16T10:17:19.146Z,19.50
2023-04-16T10:19:50.466Z,16.65
2023-04-16T10:22:18.425Z,14.27
2023-04-16T10:24:49.906Z,15.05
2023-04-16T10:27:19.254Z,13.55
2023-04-16T10:29:48.788Z,13.95
2023-04-16T10:32:18.731Z,13.80
2023-04-16T10:34:47.582Z,13.85
2023-04-16T10:37:18.049Z,14.05
2023-04-16T10:39:45.996Z,14.55
2023-04-16T10:42:13.695Z,14.90
2023-04-16T10:44:45.246Z,13.55
2023-04-16T10:47:14.415Z,14.98
2023-04-16T10:49:43.719Z,10.85
2023-04-16T10:52:14.947Z,14.02
2023-04-16T10:54:43.238Z,19.58
2023-04-16T10:57:17.713Z,14.00
2023-04-16T10:59:46.561Z,12.27
2023-04-16T11:02:20.403Z,12.00
2023-04-16T11:04:49.864Z,12.95
2023-04-16T11:07:21.058Z,9.23
2023-04-16T11:10:05.476Z,10.23
2023-04-16T11:12:48.338Z,11.60
2023-04-16T11:15:19.228Z,10.43
2023-04-16T11:17:52.523Z,9.82
2023-04-16T11:20:26.743Z,9.38
2023-04-16T11:22:59.015Z,9.43
2023-04-16T11:25:29.850Z,10.95
2023-04-16T11:28:01.406Z,9.63
2023-04-16T11:30:37.139Z,12.90
2023-04-16T11:33:12.264Z,11.77
2023-04-16T11:35:41.614Z,9.48
2023-04-16T11:38:09.366Z,10.68
2023-04-16T11:40:37.011Z,8.40
2023-04-16T11:43:22.984Z,9.65
2023-04-16T11:46:20.178Z,16.40
2023-04-16T11:48:57.830Z,20.98
2023-04-16T11:51:25.813Z,13.20
2023-04-16T11:54:04.946Z,10.52
2023-04-16T11:56:37.289Z,11.07
2023-04-16T11:59:19.443Z,11.23
2023-04-16T12:01:57.588Z,10.15
2023-04-16T12:04:27.461Z,7.93
2023-04-16T12:07:11.867Z,9.23
2023-04-16T12:09:43.989Z,9.02
2023-04-16T12:12:31.187Z,8.93
2023-04-16T12:15:03.703Z,9.20
2023-04-16T12:17:33.652Z,9.75
2023-04-16T12:20:08.372Z,8.82
2023-04-16T12:22:38.604Z,8.82
2023-04-16T12:25:18.217Z,10.30
2023-04-16T12:27:54.118Z,11.02
2023-04-16T12:30:24.249Z,10.35
2023-04-16T12:33:13.045Z,9.60
2023-04-16T12:35:43.546Z,11.07
2023-04-16T12:38:15.469Z,9.82
2023-04-16T12:40:43.578Z,8.85
2023-04-16T12:43:11.504Z,11.90
2023-04-16T12:45:40.459Z,8.85
2023-04-16T12:48:08.445Z,9.07
2023-04-16T12:50:36.409Z,8.90
2023-04-16T12:53:05.135Z,10.30
2023-04-16T12:55:32.836Z,10.77
2023-04-16T12:58:00.922Z,10.98
2023-04-16T13:00:28.738Z,9.55
2023-04-16T13:02:56.652Z,9.82
2023-04-16T13:05:24.461Z,13.43
2023-04-16T13:07:52.181Z,11.80
2023-04-16T13:10:22.204Z,10.75
2023-04-16T13:12:49.875Z,18.25
2023-04-16T13:15:17.666Z,11.75
2023-04-16T13:17:46.124Z,10.77
2023-04-16T13:20:13.878Z,13.68
2023-04-16T13:22:41.570Z,10.18
2023-04-16T13:25:10.137Z,11.45
2023-04-16T13:27:37.910Z,14.18
2023-04-16T13:30:06.565Z,13.50
2023-04-16T13:32:34.579Z,9.07
2023-04-16T13:35:05.276Z,9.30
2023-04-16T13:37:34.257Z,14.02
2023-04-16T13:40:02.136Z,16.98
2023-04-16T13:42:30.039Z,12.52
2023-04-16T13:44:58.384Z,12.40
2023-04-16T13:47:26.248Z,12.50
2023-04-16T13:49:54.148Z,12.50
2023-04-16T13:52:22.055Z,10.77
2023-04-16T13:54:50.250Z,12.38
2023-04-16T13:57:20.911Z,9.25
2023-04-16T13:59:48.648Z,10.13
2023-04-16T14:02:16.658Z,12.00
2023-04-16T14:04:44.336Z,8.73
2023-04-16T14:07:13.325Z,11.45
2023-04-16T14:09:41.105Z,11.52
2023-04-16T14:12:09.084Z,11.75
2023-04-16T14:14:36.868Z,11.35
2023-04-16T14:17:04.561Z,12.70
2023-04-16T14:19:32.263Z,11.13
2023-04-16T14:21:59.859Z,13.25
2023-04-16T14:24:27.810Z,11.68
2023-04-16T14:26:55.797Z,10.98
2023-04-16T14:29:26.640Z,10.65
2023-04-16T14:31:58.902Z,10.38
2023-04-16T14:34:29.844Z,11.35
2023-04-16T14:36:58.396Z,14.70
2023-04-16T14:39:27.090Z,12.23
2023-04-16T14:41:57.848Z,8.77
2023-04-16T14:44:25.669Z,12.10
2023-04-16T14:46:54.028Z,10.85
2023-04-16T14:49:24.108Z,9.75
2023-04-16T14:51:52.392Z,10.55
2023-04-16T14:54:20.423Z,11.20
2023-04-16T14:56:50.382Z,12.18
2023-04-16T14:59:18.118Z,11.65
2023-04-16T15:01:46.301Z,13.48
2023-04-16T15:04:14.480Z,12.55
2023-04-16T15:06:42.565Z,14.43
2023-04-16T15:09:10.535Z,11.57
2023-04-16T15:11:38.316Z,13.05
2023-04-16T15:14:06.890Z,11.32
2023-04-16T15:16:34.892Z,11.70
2023-04-16T15:19:05.036Z,13.10
2023-04-16T15:21:33.039Z,13.63
2023-04-16T15:24:01.251Z,10.65
2023-04-16T15:26:30.344Z,9.98
2023-04-16T15:28:58.314Z,10.52
2023-04-16T15:31:26.605Z,14.98
2023-04-16T15:33:56.952Z,12.40
2023-04-16T15:36:24.852Z,13.38
2023-04-16T15:38:52.987Z,10.38
2023-04-16T15:41:21.979Z,10.40
2023-04-16T15:43:50.283Z,13.70
2023-04-16T15:46:17.928Z,14.43
2023-04-16T15:48:46.048Z,18.08
2023-04-16T15:51:14.728Z,16.25
2023-04-16T15:53:44.634Z,14.95
2023-04-16T15:56:12.558Z,11.43
2023-04-16T15:58:40.366Z,12.15
2023-04-16T16:01:08.573Z,12.35
2023-04-16T16:03:36.289Z,11.75
2023-04-16T16:06:04.664Z,10.40
2023-04-16T16:08:38.154Z,12.00
2023-04-16T16:11:06.053Z,10.07
2023-04-16T16:13:33.947Z,12.82
2023-04-16T16:16:01.813Z,16.65
2023-04-16T16:18:30.414Z,13.40
2023-04-16T16:20:59.065Z,13.07
2023-04-16T16:23:27.198Z,17.52
2023-04-16T16:25:55.352Z,13.45
2023-04-16T16:28:24.991Z,12.85
2023-04-16T16:30:54.907Z,14.50
2023-04-16T16:33:22.659Z,14.68
2023-04-16T16:35:50.652Z,10.73
2023-04-16T16:38:18.329Z,15.70
2023-04-16T16:40:46.204Z,13.05
2023-04-16T16:43:47.669Z,13.52
2023-04-16T16:46:21.091Z,14.73
2023-04-16T16:48:49.251Z,12.40
2023-04-16T16:51:18.908Z,13.18
2023-04-16T16:53:49.439Z,7.57
2023-04-16T16:56:17.323Z,7.30
2023-04-16T16:58:47.679Z,8.27
2023-04-16T17:01:15.658Z,7.38
2023-04-16T17:03:43.567Z,6.32
2023-04-16T17:06:11.831Z,8.40
2023-04-16T17:08:39.997Z,111.53
2023-04-16T17:11:07.729Z,29.58
2023-04-16T17:13:35.982Z,8.27
2023-04-16T17:16:03.924Z,11.07
2023-04-16T17:18:35.697Z,6.15
2023-04-16T17:21:03.482Z,7.10
2023-04-16T17:23:31.133Z,6.40
2023-04-16T17:26:02.067Z,5.97
2023-04-16T17:28:29.907Z,4.85
2023-04-16T17:30:57.781Z,5.97
2023-04-16T17:33:25.563Z,7.95
2023-04-16T17:35:53.226Z,10.18
2023-04-16T17:38:23.521Z,8.43
2023-04-16T17:40:51.190Z,5.40
2023-04-16T17:43:19.326Z,5.57
2023-04-16T17:45:50.909Z,5.28
2023-04-16T17:48:19.086Z,6.30
2023-04-16T17:50:46.809Z,5.60
2023-04-16T17:53:17.689Z,6.63
2023-04-16T17:55:55.252Z,5.25
2023-04-16T17:58:26.414Z,7.22
2023-04-16T18:00:54.335Z,5.47
2023-04-16T18:03:22.358Z,5.05
2023-04-16T18:05:50.437Z,9.30
2023-04-16T18:08:18.224Z,5.30
2023-04-16T18:10:45.953Z,5.05
2023-04-16T18:13:13.639Z,5.35
2023-04-16T18:15:44.255Z,7.18
2023-04-16T18:18:14.967Z,4.90
2023-04-16T18:20:43.084Z,8.25
2023-04-16T18:23:10.846Z,7.03
2023-04-16T18:28:07.393Z,6.45
2023-04-16T18:30:35.522Z,9.55
2023-04-16T18:35:33.945Z,7.75
2023-04-16T18:38:02.179Z,6.07
2023-04-16T18:40:35.820Z,9.02
2023-04-16T18:43:05.299Z,8.27
2023-04-16T18:45:38.265Z,7.40
2023-04-16T18:48:06.424Z,7.78
2023-04-16T18:50:35.046Z,6.95
2023-04-16T18:53:02.752Z,7.22
2023-04-16T18:55:33.190Z,8.35
2023-04-16T18:58:00.950Z,6.82
2023-04-16T19:00:28.665Z,6.50
2023-04-16T19:02:57.322Z,10.80
2023-04-16T19:05:25.294Z,12.60
2023-04-16T19:07:54.304Z,6.57
2023-04-16T19:10:22.022Z,5.95
2023-04-16T19:12:50.143Z,5.15
2023-04-16T19:15:18.285Z,7.20
2023-04-16T19:17:46.656Z,7.13
2023-04-16T19:20:15.313Z,6.38
2023-04-16T19:22:45.876Z,7.55
2023-04-16T19:25:13.612Z,6.97
2023-04-16T19:27:41.469Z,7.43
2023-04-16T19:30:10.441Z,17.00
2023-04-16T19:32:38.517Z,11.25
2023-04-16T19:35:09.507Z,8.68
2023-04-16T19:37:37.272Z,13.38
2023-04-16T19:40:06.601Z,8.93
2023-04-16T19:42:34.354Z,7.90
2023-04-16T19:45:05.104Z,7.72
2023-04-16T19:47:32.867Z,6.00
2023-04-16T19:50:00.619Z,5.78
2023-04-16T19:52:28.392Z,9.63
2023-04-16T19:54:56.057Z,7.63
2023-04-16T19:57:23.759Z,7.90
2023-04-16T19:59:52.137Z,6.30
2023-04-16T20:02:21.329Z,5.60
2023-04-16T20:04:49.222Z,5.85
2023-04-16T20:07:18.232Z,10.00
2023-04-16T20:09:46.002Z,7.90
2023-04-16T20:12:14.330Z,6.28
2023-04-16T20:14:43.962Z,6.13
2023-04-16T20:17:11.683Z,6.95
2023-04-16T20:19:39.405Z,5.00
2023-04-16T20:22:07.361Z,5.32
2023-04-16T20:24:35.261Z,5.10
2023-04-16T20:27:02.899Z,4.63
2023-04-16T20:29:30.717Z,5.50
2023-04-16T20:31:58.435Z,7.80
2023-04-16T20:34:27.757Z,5.30
2023-04-16T20:36:55.404Z,5.18
2023-04-16T20:39:27.415Z,6.20
2023-04-16T20:41:57.804Z,5.35
2023-04-16T20:44:40.378Z,8.38
2023-04-16T20:47:09.233Z,4.18
2023-04-16T20:49:38.321Z,5.37
2023-04-16T20:52:07.342Z,6.10
2023-04-16T20:54:35.015Z,5.87
2023-04-16T20:57:04.616Z,4.68
2023-04-16T20:59:32.643Z,4.32
2023-04-16T21:02:00.566Z,4.78
2023-04-16T21:04:28.321Z,6.55
2023-04-16T21:06:56.296Z,5.77
2023-04-16T21:09:24.240Z,5.43
2023-04-16T21:11:51.853Z,5.50
2023-04-16T21:14:19.497Z,5.03
2023-04-16T21:16:47.160Z,4.23
2023-04-16T21:19:14.738Z,5.47
2023-04-16T21:21:42.586Z,5.97
2023-04-16T21:24:10.273Z,5.93
2023-04-16T21:26:37.857Z,6.63
2023-04-16T21:29:11.780Z,5.90
2023-04-16T21:31:50.819Z,5.80
2023-04-16T21:34:18.907Z,5.43
2023-04-16T21:36:46.508Z,6.10
2023-04-16T21:39:15.907Z,7.90
2023-04-16T21:41:43.682Z,11.77
2023-04-16T21:44:12.768Z,7.15
2023-04-16T21:46:40.429Z,5.33
2023-04-16T21:49:08.197Z,6.37
2023-04-16T21:51:36.192Z,9.20
2023-04-16T21:54:04.455Z,6.10
2023-04-16T21:56:32.136Z,7.03
2023-04-16T21:59:00.383Z,7.23
2023-04-16T22:01:28.615Z,6.20
2023-04-16T22:03:56.355Z,7.47
2023-04-16T22:06:24.065Z,5.77
2023-04-16T22:08:55.318Z,5.83
2023-04-16T22:11:22.934Z,5.17
2023-04-16T22:13:50.664Z,7.47
2023-04-16T22:16:18.507Z,5.67
2023-04-16T22:18:47.281Z,6.13
2023-04-16T22:21:14.927Z,5.93
2023-04-16T22:23:42.708Z,6.23
2023-04-16T22:26:10.618Z,8.13
2023-04-16T22:28:38.274Z,7.77
2023-04-16T22:31:06.009Z,6.20
2023-04-16T22:33:33.657Z,8.63
2023-04-16T22:36:01.264Z,6.37
2023-04-16T22:38:28.989Z,6.60
2023-04-16T22:40:56.670Z,6.83
2023-04-16T22:43:24.260Z,8.97
2023-04-16T22:46:04.902Z,7.60
2023-04-16T22:48:38.606Z,8.50
2023-04-16T22:51:08.752Z,8.57
2023-04-16T22:53:36.784Z,8.33
2023-04-16T22:56:04.556Z,11.53
2023-04-16T22:58:35.085Z,9.00
2023-04-16T23:01:03.214Z,9.13
2023-04-16T23:03:31.337Z,10.03
2023-04-16T23:05:59.160Z,8.20
2023-04-16T23:08:26.730Z,13.10
2023-04-16T23:10:54.553Z,8.53
2023-04-16T23:13:22.287Z,7.93
2023-04-16T23:15:49.999Z,11.80
2023-04-16T23:18:17.734Z,9.07
2023-04-16T23:20:45.563Z,10.97
2023-04-16T23:23:13.261Z,8.33
2023-04-16T23:25:41.722Z,11.00
2023-04-16T23:28:09.442Z,10.00
2023-04-16T23:30:37.225Z,12.43
2023-04-16T23:33:05.058Z,13.23
2023-04-16T23:35:32.799Z,9.97
2023-04-16T23:38:00.574Z,10.93
2023-04-16T23:40:31.035Z,15.10
2023-04-16T23:42:58.815Z,12.50
2023-04-16T23:45:26.387Z,12.20
2023-04-16T23:47:54.030Z,11.40
2023-04-16T23:50:21.717Z,12.90
2023-04-16T23:52:49.372Z,9.97
2023-04-16T23:55:17.045Z,10.77
2023-04-16T23:57:44.650Z,12.27
